ROMMA est une association bénévole à but non lucratif. Votre soutien est indispensable : ADHERER à ROMMA ou FAIRE un DON

Orcières - (05, Hautes-Alpes)

Massif du Champsaur (1610 m)   Longitude: 06° 19' 03 E   Latitude: 44° 41' 18 N Station partenaire n°2
 

Détail journalier du     <<     >>

Température Humidité Vent Dir Rafale Dir. rafale Ensol.
Heure (°C) (%) (km/h) (km/h) (min)
01:00 6.1452S8S0
02:00 6.2463S16S0
03:00 6.34511S23S0
04:00 6.94011S21S0
05:00 6.93812S21S0
06:00 6.64014S23S0
07:00 7.33811S19S0
08:00 7.34112S23S0
09:00 7.54116S27S30
10:00 7.94017S29S30
11:00 8.63816S31SSO30
12:00 9.1388SSO27SSO60
13:00 9.13411SSO27SSO60
14:00 8.83612SO29SSO50
15:00 8.73619S37S50
16:00 8.43724SSO56SO60
17:00 7.93520SSO45SSO60
18:00 4.5536OSO29SSO0
19:00 2.1681OSO6OSO0
20:00 1.6761OSO8OSO0
21:00 1.2782NO11NO0
22:00 1.5762NO11NO0
23:00
minuit

Graphique du 23-01-2020

 

Serveur OMMA